createdAt,value
2018-10-04T00:04:04.231Z,100824.22
2018-10-04T00:08:47.363Z,100825.09
2018-10-04T00:13:30.825Z,100827.02
2018-10-04T00:18:15.015Z,100833.36
2018-10-04T00:22:57.910Z,100836.45
2018-10-04T00:29:11.332Z,100833.29
2018-10-04T00:33:54.234Z,100845.84
2018-10-04T00:38:37.329Z,100842.11
2018-10-04T00:43:20.194Z,100851.05
2018-10-04T00:48:04.092Z,100855.70
2018-10-04T00:52:46.946Z,100874.80
2018-10-04T00:57:29.859Z,100877.53
2018-10-04T01:02:12.731Z,100884.50
2018-10-04T01:06:55.855Z,100882.75
2018-10-04T01:11:38.736Z,100882.75
2018-10-04T01:16:30.616Z,100885.40
2018-10-04T01:21:13.499Z,100898.51
2018-10-04T01:25:57.411Z,100891.39
2018-10-04T01:30:40.271Z,100897.92
2018-10-04T01:35:23.130Z,100897.17
2018-10-04T01:40:06.018Z,100902.02
2018-10-04T01:44:48.909Z,100909.85
2018-10-04T01:49:31.819Z,100914.63
2018-10-04T01:54:14.709Z,100914.06
2018-10-04T01:58:58.605Z,100923.76
2018-10-04T02:03:41.496Z,100929.31
2018-10-04T02:08:24.780Z,100928.37
2018-10-04T02:13:07.679Z,100928.11
2018-10-04T02:17:50.613Z,100936.83
2018-10-04T02:22:33.641Z,100939.11
2018-10-04T02:27:18.733Z,100947.96
2018-10-04T02:32:01.801Z,100951.42
2018-10-04T02:36:45.738Z,100949.54
2018-10-04T02:41:28.733Z,100959.05
2018-10-04T02:46:12.811Z,100956.73
2018-10-04T02:50:55.936Z,100954.86
2018-10-04T02:57:09.248Z,100956.68
2018-10-04T03:01:52.249Z,100957.78
2018-10-04T03:06:36.238Z,100960.25
2018-10-04T03:11:19.154Z,100968.21
2018-10-04T03:16:05.360Z,100991.61
2018-10-04T03:20:48.303Z,101001.81
2018-10-04T03:25:32.313Z,101001.80
2018-10-04T03:30:15.287Z,100997.95
2018-10-04T03:34:58.095Z,100998.30
2018-10-04T03:39:41.029Z,101010.66
2018-10-04T03:44:24.174Z,101002.68
2018-10-04T03:49:08.066Z,101015.82
2018-10-04T03:53:50.933Z,101010.03
2018-10-04T03:58:33.803Z,101013.08
2018-10-04T04:03:16.686Z,101032.23
2018-10-04T04:08:00.620Z,101020.37
2018-10-04T04:12:43.674Z,101025.83
2018-10-04T04:17:26.652Z,101036.43
2018-10-04T04:22:09.732Z,101025.17
2018-10-04T04:26:53.721Z,101027.05
2018-10-04T04:31:36.592Z,101030.84
2018-10-04T04:36:19.747Z,101042.47
2018-10-04T04:41:03.324Z,101048.81
2018-10-04T04:45:47.281Z,101043.73
2018-10-04T04:50:30.197Z,101054.92
2018-10-04T04:55:20.377Z,101053.00
2018-10-04T05:00:03.280Z,101049.64
2018-10-04T05:04:46.173Z,101044.83
2018-10-04T05:09:30.133Z,101058.24
2018-10-04T05:14:13.003Z,101054.11
2018-10-04T05:18:55.895Z,101060.48
2018-10-04T05:23:38.796Z,101057.36
2018-10-04T05:28:23.737Z,101073.39
2018-10-04T05:33:06.726Z,101068.36
2018-10-04T05:37:49.722Z,101074.30
2018-10-04T05:42:32.616Z,101069.29
2018-10-04T05:47:17.588Z,101079.47
2018-10-04T05:52:00.462Z,101080.67
2018-10-04T05:56:45.385Z,101089.97
2018-10-04T06:01:28.333Z,101095.39
2018-10-04T06:06:12.411Z,101103.12
2018-10-04T06:10:56.324Z,101102.75
2018-10-04T06:15:41.211Z,101103.45
2018-10-04T06:20:25.157Z,101105.59
2018-10-04T06:25:09.093Z,101109.97
2018-10-04T06:29:52.357Z,101106.18
2018-10-04T06:34:35.206Z,101114.31
2018-10-04T06:39:19.067Z,101103.27
2018-10-04T06:44:01.942Z,101107.35
2018-10-04T06:48:47.045Z,101102.33
2018-10-04T06:53:29.877Z,101119.14
2018-10-04T06:58:16.415Z,101110.05
2018-10-04T07:02:59.307Z,101112.47
2018-10-04T07:07:44.161Z,101118.69
2018-10-04T07:12:27.021Z,101112.06
2018-10-04T07:17:12.077Z,101122.08
2018-10-04T07:21:54.937Z,101112.25
2018-10-04T07:26:40.094Z,101110.66
2018-10-04T07:31:23.042Z,101112.19
2018-10-04T07:36:07.188Z,101118.17
2018-10-04T07:40:50.050Z,101109.97
2018-10-04T07:45:33.948Z,101120.20
2018-10-04T07:50:16.833Z,101117.17
2018-10-04T07:54:59.700Z,101117.56
2018-10-04T07:59:42.619Z,101110.41
2018-10-04T08:04:25.505Z,101112.53
2018-10-04T08:09:10.375Z,101119.89
2018-10-04T08:13:53.294Z,101126.64
2018-10-04T08:18:37.190Z,101126.25
2018-10-04T08:23:20.030Z,101125.41
2018-10-04T08:28:06.819Z,101110.56
2018-10-04T08:32:49.697Z,101125.06
2018-10-04T08:37:32.811Z,101111.35
2018-10-04T08:42:15.743Z,101120.36
2018-10-04T08:47:02.177Z,101116.70
2018-10-04T08:51:51.418Z,101118.53
2018-10-04T08:56:36.387Z,101124.95
2018-10-04T09:01:19.227Z,101128.44
2018-10-04T09:06:03.169Z,101130.40
2018-10-04T09:10:46.009Z,101127.52
2018-10-04T09:15:28.926Z,101119.97
2018-10-04T09:20:11.851Z,101114.45
2018-10-04T09:24:55.681Z,101131.91
2018-10-04T09:29:44.015Z,101126.00
2018-10-04T09:34:27.180Z,101131.00
2018-10-04T09:39:11.451Z,101119.75
2018-10-04T09:43:55.092Z,101130.93
2018-10-04T09:48:42.712Z,101130.02
2018-10-04T09:53:25.628Z,101134.53
2018-10-04T09:58:11.739Z,101135.81
2018-10-04T10:02:59.060Z,101129.19
2018-10-04T10:07:42.844Z,101128.44
2018-10-04T10:12:25.724Z,101127.47
2018-10-04T10:17:10.691Z,101132.95
2018-10-04T10:21:53.543Z,101132.15
2018-10-04T10:28:06.902Z,101126.61
2018-10-04T10:32:49.727Z,101120.03
2018-10-04T10:37:35.945Z,101125.93
2018-10-04T10:42:18.830Z,101120.64
2018-10-04T10:47:03.049Z,101120.47
2018-10-04T10:51:45.923Z,101122.34
2018-10-04T10:56:30.805Z,101121.80
2018-10-04T11:01:13.771Z,101132.16
2018-10-04T11:06:00.531Z,101124.45
2018-10-04T11:10:43.521Z,101112.64
2018-10-04T11:15:26.481Z,101117.22
2018-10-04T11:20:09.338Z,101095.23
2018-10-04T11:24:54.306Z,101093.36
2018-10-04T11:29:37.215Z,101093.08
2018-10-04T11:34:20.297Z,101081.27
2018-10-04T11:39:03.403Z,101097.69
2018-10-04T11:43:47.859Z,101094.08
2018-10-04T11:48:33.881Z,101095.10
2018-10-04T11:53:16.809Z,101096.98
2018-10-04T11:58:00.764Z,101105.55
2018-10-04T12:02:44.810Z,101106.48
2018-10-04T12:07:28.920Z,101109.55
2018-10-04T12:12:11.799Z,101100.80
2018-10-04T12:16:58.286Z,101102.36
2018-10-04T12:21:41.121Z,101100.08
2018-10-04T12:26:27.677Z,101095.99
2018-10-04T12:31:10.993Z,101113.97
2018-10-04T12:35:54.933Z,101119.62
2018-10-04T12:40:37.819Z,101121.59
2018-10-04T12:45:24.032Z,101119.78
2018-10-04T12:50:07.320Z,101121.45
2018-10-04T12:54:50.275Z,101112.94
2018-10-04T12:59:33.160Z,101132.04
2018-10-04T13:04:16.034Z,101127.22
2018-10-04T13:08:58.939Z,101123.56
2018-10-04T13:13:41.843Z,101122.15
2018-10-04T13:18:24.946Z,101121.70
2018-10-04T13:23:07.806Z,101133.86
2018-10-04T13:27:51.992Z,101135.38
2018-10-04T13:32:34.720Z,101144.09
2018-10-04T13:37:21.050Z,101145.98
2018-10-04T13:42:03.961Z,101137.89
2018-10-04T13:46:48.882Z,101136.16
2018-10-04T13:51:31.894Z,101142.55
2018-10-04T13:56:20.944Z,101146.06
2018-10-04T14:01:04.682Z,101151.95
2018-10-04T14:05:47.691Z,101151.77
2018-10-04T14:10:30.551Z,101148.20
2018-10-04T14:15:17.450Z,101153.01
2018-10-04T14:20:00.371Z,101149.53
2018-10-04T14:24:44.328Z,101161.14
2018-10-04T14:29:27.554Z,101166.77
2018-10-04T14:34:11.107Z,101169.02
2018-10-04T14:38:53.989Z,101176.37
2018-10-04T14:43:37.108Z,101184.62
2018-10-04T14:48:20.016Z,101188.77
2018-10-04T14:53:02.911Z,101185.97
2018-10-04T14:57:46.002Z,101189.87
2018-10-04T15:03:59.595Z,101191.26
2018-10-04T15:08:42.478Z,101191.06
2018-10-04T15:13:25.375Z,101191.66
2018-10-04T15:18:08.282Z,101206.23
2018-10-04T15:22:51.166Z,101208.99
2018-10-04T15:27:35.214Z,101213.69
2018-10-04T15:32:18.060Z,101215.69
2018-10-04T15:37:01.992Z,101227.80
2018-10-04T15:41:44.865Z,101229.42
2018-10-04T15:46:31.086Z,101229.27
2018-10-04T15:51:13.964Z,101234.59
2018-10-04T15:55:57.219Z,101245.23
2018-10-04T16:00:40.080Z,101255.64
2018-10-04T16:05:25.174Z,101254.44
2018-10-04T16:10:09.048Z,101256.69
2018-10-04T16:14:52.012Z,101261.59
2018-10-04T16:19:34.873Z,101267.05
2018-10-04T16:24:20.118Z,101274.00
2018-10-04T16:29:03.032Z,101274.16
2018-10-04T16:33:46.038Z,101289.94
2018-10-04T16:38:29.071Z,101293.98
2018-10-04T16:43:11.858Z,101300.66
2018-10-04T16:47:54.914Z,101307.28
2018-10-04T16:52:38.319Z,101307.16
2018-10-04T16:57:21.717Z,101321.11
2018-10-04T17:02:04.721Z,101322.00
2018-10-04T17:06:47.821Z,101328.80
2018-10-04T17:11:30.718Z,101333.75
2018-10-04T17:16:17.207Z,101336.77
2018-10-04T17:21:00.102Z,101347.94
2018-10-04T17:25:47.143Z,101358.12
2018-10-04T17:30:29.992Z,101368.29
2018-10-04T17:35:12.995Z,101372.61
2018-10-04T17:39:55.858Z,101376.52
2018-10-04T17:44:38.870Z,101380.25
2018-10-04T17:49:22.333Z,101379.95
2018-10-04T17:54:05.363Z,101381.02
2018-10-04T17:58:48.395Z,101392.30
2018-10-04T18:03:31.765Z,101395.85
2018-10-04T18:08:14.765Z,101396.34
2018-10-04T18:13:01.362Z,101397.25
2018-10-04T18:17:45.274Z,101393.45
2018-10-04T18:22:28.190Z,101397.53
2018-10-04T18:27:11.166Z,101404.81
2018-10-04T18:31:54.042Z,101406.27
2018-10-04T18:36:37.192Z,101413.59
2018-10-04T18:41:20.611Z,101418.22
2018-10-04T18:46:04.051Z,101414.64
2018-10-04T18:50:46.931Z,101422.47
2018-10-04T18:55:30.354Z,101433.02
2018-10-04T19:00:13.267Z,101438.22
2018-10-04T19:04:56.242Z,101445.15
2018-10-04T19:09:39.171Z,101450.09
2018-10-04T19:14:22.248Z,101460.05
2018-10-04T19:19:05.218Z,101457.66
2018-10-04T19:23:48.271Z,101461.69
2018-10-04T19:28:31.167Z,101467.80
2018-10-04T19:33:14.268Z,101468.66
2018-10-04T19:37:57.202Z,101469.13
2018-10-04T19:42:40.129Z,101473.11
2018-10-04T19:47:23.242Z,101481.67
2018-10-04T19:52:06.217Z,101482.23
2018-10-04T19:56:49.122Z,101485.48
2018-10-04T20:01:32.029Z,101490.08
2018-10-04T20:06:18.651Z,101495.05
2018-10-04T20:11:01.579Z,101494.71
2018-10-04T20:15:48.482Z,101493.67
2018-10-04T20:20:31.465Z,101503.71
2018-10-04T20:25:14.469Z,101501.06
2018-10-04T20:29:57.368Z,101507.91
2018-10-04T20:34:40.538Z,101516.89
2018-10-04T20:39:23.422Z,101516.67
2018-10-04T20:44:06.520Z,101521.60
2018-10-04T20:48:49.472Z,101526.67
2018-10-04T20:53:33.789Z,101523.91
2018-10-04T20:58:16.580Z,101525.17
2018-10-04T21:02:59.588Z,101526.75
2018-10-04T21:07:42.460Z,101535.13
2018-10-04T21:12:25.327Z,101526.02
2018-10-04T21:17:11.813Z,101530.09
2018-10-04T21:21:54.713Z,101536.72
2018-10-04T21:26:38.864Z,101545.23
2018-10-04T21:31:21.769Z,101549.00
2018-10-04T21:36:08.473Z,101547.94
2018-10-04T21:40:51.321Z,101545.48
2018-10-04T21:45:37.524Z,101552.73
2018-10-04T21:50:20.354Z,101556.61
2018-10-04T21:55:03.784Z,101563.55
2018-10-04T21:59:46.842Z,101568.55
2018-10-04T22:04:30.759Z,101567.77
2018-10-04T22:09:13.599Z,101567.53
2018-10-04T22:14:00.417Z,101577.42
2018-10-04T22:18:43.243Z,101581.87
2018-10-04T22:23:27.215Z,101587.44
2018-10-04T22:28:10.076Z,101588.54
2018-10-04T22:32:53.046Z,101607.78
2018-10-04T22:37:35.916Z,101606.03
2018-10-04T22:42:18.804Z,101605.89
2018-10-04T22:47:01.660Z,101611.34
2018-10-04T22:51:44.505Z,101621.41
2018-10-04T22:56:27.834Z,101618.20
2018-10-04T23:01:10.740Z,101618.92
2018-10-04T23:05:54.733Z,101622.33
2018-10-04T23:10:37.617Z,101633.63
2018-10-04T23:15:20.484Z,101640.37
2018-10-04T23:20:03.413Z,101643.78
2018-10-04T23:24:47.523Z,101642.61
2018-10-04T23:29:30.399Z,101639.48
2018-10-04T23:34:13.317Z,101643.70
2018-10-04T23:38:56.192Z,101649.05
2018-10-04T23:43:39.371Z,101652.02
2018-10-04T23:48:22.213Z,101651.05
2018-10-04T23:53:05.513Z,101649.67
2018-10-04T23:57:48.402Z,101646.39
